Time;durP1;ratioP1;P1;durP2;ratioP2;P2;SDS_P1;SDS_P2;PMS_P1;PMS_P2;Temp;Humidity;BMP_temperature;BMP_pressure;BME280_temperature;BME280_humidity;BME280_pressure;Samples;Min_cycle;Max_cycle;Signal;HPM_P1;HPM_P2
2023/03/29 00:00:58;;;;;;;1.50;1.40;;;;;;;-0.01;70.06;98316.77;107511;1254;69948;-36
2023/03/29 00:03:30;;;;;;;3.30;1.70;;;;;;;-0.02;70.24;98316.49;107456;1254;73534;-37
2023/03/29 00:06:02;;;;;;;2.20;1.50;;;;;;;-0.04;70.25;98315.93;107486;1254;62447;-37
2023/03/29 00:08:41;;;;;;;4.80;1.50;;;;;;;0.00;70.02;98318.88;107441;1255;61554;-37
2023/03/29 00:11:11;;;;;;;6.60;1.50;;;;;;;0.02;69.93;98314.36;107515;1254;75083;-36
2023/03/29 00:13:39;;;;;;;5.20;1.50;;;;;;;-0.02;69.55;98323.14;107490;1254;69967;-37
2023/03/29 00:16:16;;;;;;;2.70;1.40;;;;;;;-0.02;69.92;98328.50;107464;1254;73961;-36
2023/03/29 00:18:45;;;;;;;2.10;1.40;;;;;;;-0.05;69.85;98319.95;107480;1254;60502;-36
2023/03/29 00:21:15;;;;;;;1.60;1.20;;;;;;;-0.01;69.90;98327.48;107494;1255;61460;-37
2023/03/29 00:23:44;;;;;;;2.10;1.40;;;;;;;0.03;70.04;98327.81;107484;1254;73777;-37
2023/03/29 00:26:13;;;;;;;1.90;1.30;;;;;;;-0.01;70.09;98328.03;107378;1255;69899;-37
2023/03/29 00:28:41;;;;;;;2.70;1.60;;;;;;;-0.03;70.17;98342.54;107432;1257;73826;-37
2023/03/29 00:31:13;;;;;;;1.80;1.50;;;;;;;-0.06;70.43;98343.73;107390;1254;60750;-37
2023/03/29 00:33:41;;;;;;;2.60;1.40;;;;;;;-0.07;70.05;98353.64;107307;1254;61473;-37
2023/03/29 00:36:11;;;;;;;3.40;1.60;;;;;;;-0.03;70.10;98357.78;107411;1254;75110;-37
2023/03/29 00:38:41;;;;;;;3.30;1.50;;;;;;;-0.04;69.85;98360.02;107495;1255;68845;-37
2023/03/29 00:41:10;;;;;;;3.10;1.50;;;;;;;-0.09;69.50;98358.95;107505;1254;72508;-37
2023/03/29 00:43:58;;;;;;;1.20;0.90;;;;;;;-0.13;69.46;98365.85;107477;1254;60696;-37
2023/03/29 00:46:29;;;;;;;2.50;1.40;;;;;;;-0.17;69.83;98360.12;107518;1254;61537;-37
2023/03/29 00:49:07;;;;;;;2.60;1.20;;;;;;;-0.12;70.02;98364.70;107470;1254;74910;-37
2023/03/29 00:51:36;;;;;;;4.30;1.40;;;;;;;-0.11;70.13;98366.02;107475;1254;69642;-37
2023/03/29 00:54:09;;;;;;;1.40;1.10;;;;;;;-0.15;69.81;98368.99;107356;1260;72784;-37
2023/03/29 00:56:38;;;;;;;2.20;1.40;;;;;;;-0.19;70.06;98370.94;107468;1258;60780;-38
2023/03/29 00:59:11;;;;;;;2.50;1.30;;;;;;;-0.22;70.10;98367.61;107521;1255;60265;-37
2023/03/29 01:01:53;;;;;;;1.70;1.40;;;;;;;-0.18;70.15;98371.66;107389;1255;73918;-38
2023/03/29 01:04:44;;;;;;;1.80;1.30;;;;;;;-0.12;70.35;98371.10;107370;1254;68812;-37
2023/03/29 01:07:20;;;;;;;3.60;1.60;;;;;;;-0.11;69.95;98367.31;107203;1255;73892;-37
2023/03/29 01:09:58;;;;;;;2.60;1.40;;;;;;;-0.15;69.57;98362.27;107322;1254;60785;-37
2023/03/29 01:12:29;;;;;;;1.90;1.30;;;;;;;-0.18;69.29;98361.27;107338;1256;61297;-37
2023/03/29 01:15:20;;;;;;;1.30;0.90;;;;;;;-0.23;69.50;98361.31;107325;1257;75062;-37
2023/03/29 01:17:50;;;;;;;1.70;1.20;;;;;;;-0.16;69.48;98364.52;107339;1257;68908;-37
2023/03/29 01:20:27;;;;;;;4.50;1.40;;;;;;;-0.16;69.41;98360.89;107480;1257;73524;-37
2023/03/29 01:23:26;;;;;;;1.90;1.60;;;;;;;-0.20;69.08;98357.65;107476;1257;60241;-36
2023/03/29 01:26:06;;;;;;;4.00;1.20;;;;;;;-0.21;69.22;98363.83;107523;1258;60328;-36
2023/03/29 01:28:39;;;;;;;3.60;1.10;;;;;;;-0.26;68.87;98368.92;107312;1255;74379;-36
2023/03/29 01:31:20;;;;;;;2.20;1.20;;;;;;;-0.22;69.15;98371.69;107431;1257;70293;-36
2023/03/29 01:33:54;;;;;;;2.30;1.10;;;;;;;-0.17;69.28;98377.48;107433;1257;73880;-36
2023/03/29 01:36:42;;;;;;;1.40;1.20;;;;;;;-0.19;68.89;98371.74;107473;1255;60513;-36
2023/03/29 01:39:11;;;;;;;1.80;1.30;;;;;;;-0.20;68.88;98377.27;106657;1257;1002981;-36
2023/03/29 01:41:50;;;;;;;2.10;1.50;;;;;;;-0.23;69.02;98385.19;107299;1257;75090;-36
2023/03/29 01:44:51;;;;;;;2.80;1.20;;;;;;;-0.26;68.77;98391.73;106633;1257;1003287;-36
2023/03/29 01:47:26;;;;;;;2.50;1.30;;;;;;;-0.23;68.72;98395.40;106979;1257;73916;-36
2023/03/29 01:50:00;;;;;;;1.60;1.30;;;;;;;-0.23;69.00;98397.77;107349;1259;60537;-36
2023/03/29 01:52:38;;;;;;;1.90;1.50;;;;;;;-0.22;69.12;98395.00;107300;1257;61608;-36
2023/03/29 01:55:34;;;;;;;2.50;1.40;;;;;;;-0.21;69.03;98401.73;107258;1257;75072;-36
2023/03/29 01:58:06;;;;;;;3.70;1.50;;;;;;;-0.19;69.04;98399.39;107277;1257;70160;-37
2023/03/29 02:00:35;;;;;;;3.60;1.50;;;;;;;-0.19;68.97;98403.92;107486;1254;71560;-37
2023/03/29 02:03:07;;;;;;;2.40;1.30;;;;;;;-0.12;68.07;98396.61;107451;1256;60424;-37
2023/03/29 02:05:39;;;;;;;2.60;1.30;;;;;;;-0.08;67.83;98399.27;107487;1255;61514;-37
2023/03/29 02:08:10;;;;;;;2.40;1.40;;;;;;;-0.10;67.63;98404.04;107487;1258;75108;-37
2023/03/29 02:10:39;;;;;;;3.30;1.50;;;;;;;-0.13;67.38;98411.68;107384;1257;69634;-37
2023/03/29 02:13:08;;;;;;;1.50;1.20;;;;;;;-0.17;67.90;98414.93;107270;1258;73911;-37
2023/03/29 02:15:37;;;;;;;2.10;1.60;;;;;;;-0.18;67.71;98415.40;107466;1257;60810;-37
2023/03/29 02:18:06;;;;;;;2.10;1.00;;;;;;;-0.18;67.74;98418.75;107429;1256;60319;-37
2023/03/29 02:20:39;;;;;;;1.90;1.50;;;;;;;-0.10;67.54;98425.50;107500;1255;75025;-37
2023/03/29 02:23:20;;;;;;;2.40;1.40;;;;;;;-0.05;67.58;98426.30;107424;1257;68872;-37
2023/03/29 02:25:52;;;;;;;1.80;1.40;;;;;;;-0.08;66.95;98436.29;107414;1257;73665;-36
2023/03/29 02:28:21;;;;;;;3.80;1.60;;;;;;;-0.09;67.49;98440.55;107342;1257;60549;-37
2023/03/29 02:31:04;;;;;;;2.10;1.50;;;;;;;-0.12;67.58;98449.27;107306;1257;61379;-37
2023/03/29 02:33:59;;;;;;;2.20;1.40;;;;;;;-0.14;67.47;98457.14;107772;1251;75070;-36
2023/03/29 02:36:43;;;;;;;3.20;1.60;;;;;;;-0.16;67.85;98456.61;107053;1251;1002894;-37
2023/03/29 02:39:18;;;;;;;1.70;1.40;;;;;;;-0.10;67.53;98459.81;107718;1251;73799;-37
2023/03/29 02:41:48;;;;;;;2.50;1.50;;;;;;;-0.12;67.69;98463.77;107747;1251;60754;-36
2023/03/29 02:44:19;;;;;;;2.40;1.60;;;;;;;-0.14;67.75;98461.16;107586;1251;61103;-36
2023/03/29 02:46:50;;;;;;;3.90;1.60;;;;;;;-0.18;67.63;98462.50;107680;1251;73832;-37
2023/03/29 02:49:19;;;;;;;2.00;1.50;;;;;;;-0.23;67.68;98470.73;107632;1252;69871;-37
2023/03/29 02:51:54;;;;;;;1.50;1.40;;;;;;;-0.26;67.79;98473.02;106911;1250;1002926;-37
2023/03/29 02:54:24;;;;;;;2.10;1.40;;;;;;;-0.23;67.96;98481.23;107781;1251;61890;-37
2023/03/29 02:56:56;;;;;;;1.70;1.40;;;;;;;-0.18;67.85;98479.77;107744;1250;61313;-37
2023/03/29 02:59:25;;;;;;;4.00;1.50;;;;;;;-0.19;67.62;98483.92;107595;1251;75122;-37
2023/03/29 03:01:53;;;;;;;4.60;1.80;;;;;;;-0.23;67.64;98488.71;107639;1251;68945;-37
2023/03/29 03:04:22;;;;;;;2.80;1.80;;;;;;;-0.26;67.96;98493.79;107765;1251;72629;-37
2023/03/29 03:06:50;;;;;;;2.50;1.70;;;;;;;-0.31;67.77;98493.33;107704;1251;60178;-37
2023/03/29 03:09:19;;;;;;;4.20;1.30;;;;;;;-0.32;67.85;98492.89;107735;1252;61268;-37
2023/03/29 03:11:52;;;;;;;1.50;1.20;;;;;;;-0.25;67.67;98496.04;107795;1256;75156;-37
2023/03/29 03:14:22;;;;;;;2.20;1.60;;;;;;;-0.24;67.80;98500.16;107808;1257;69875;-37
2023/03/29 03:16:52;;;;;;;2.50;1.80;;;;;;;-0.26;67.57;98501.19;107704;1251;73518;-37
2023/03/29 03:19:22;;;;;;;1.80;1.30;;;;;;;-0.28;67.75;98506.62;107742;1251;60774;-37
2023/03/29 03:21:51;;;;;;;2.30;1.30;;;;;;;-0.38;67.58;98496.44;107737;1252;61517;-37
2023/03/29 03:24:21;;;;;;;1.80;1.20;;;;;;;-0.35;67.71;98510.95;106942;1251;1003712;-37
2023/03/29 03:26:51;;;;;;;;;;;;;;;-0.33;67.29;98509.95;107757;1252;69921;-37
2023/03/29 03:29:19;;;;;;;1.50;1.30;;;;;;;-0.37;67.43;98514.58;107741;1251;73861;-37
2023/03/29 03:32:10;;;;;;;3.70;1.70;;;;;;;-0.42;67.22;98516.11;107708;1252;60567;-37
2023/03/29 03:34:58;;;;;;;1.60;1.50;;;;;;;-0.46;67.41;98524.30;107700;1251;61443;-37
2023/03/29 03:37:27;;;;;;;3.80;1.40;;;;;;;-0.50;67.49;98527.67;107794;1257;73915;-37
2023/03/29 03:39:56;;;;;;;2.90;1.40;;;;;;;-0.55;67.24;98525.29;107703;1250;69603;-36
2023/03/29 03:42:28;;;;;;;2.80;1.60;;;;;;;-0.51;67.33;98533.77;107708;1252;73529;-37
2023/03/29 03:44:58;;;;;;;2.50;1.40;;;;;;;-0.46;67.32;98532.19;106904;1251;1002952;-37
2023/03/29 03:47:33;;;;;;;2.60;1.60;;;;;;;-0.44;67.80;98534.64;107624;1254;61529;-37
2023/03/29 03:50:15;;;;;;;3.20;1.60;;;;;;;-0.44;67.21;98540.55;107668;1252;75084;-38
2023/03/29 03:52:45;;;;;;;3.10;1.60;;;;;;;-0.49;66.95;98548.63;107751;1251;69950;-37
2023/03/29 03:55:17;;;;;;;3.50;1.50;;;;;;;-0.51;67.53;98546.70;107672;1250;73931;-37
2023/03/29 03:58:11;;;;;;;2.20;1.40;;;;;;;-0.58;67.17;98545.30;107676;1252;62169;-37
2023/03/29 04:00:40;;;;;;;3.00;1.80;;;;;;;-0.54;67.62;98553.64;107729;1251;61572;-37
2023/03/29 04:03:25;;;;;;;2.20;1.70;;;;;;;-0.49;67.48;98551.27;107729;1252;74672;-37
2023/03/29 04:05:55;;;;;;;1.70;1.10;;;;;;;-0.49;67.23;98553.94;107745;1252;68983;-37
2023/03/29 04:08:24;;;;;;;2.90;1.80;;;;;;;-0.51;66.79;98549.93;107691;1251;73857;-37
2023/03/29 04:11:14;;;;;;;2.60;1.60;;;;;;;-0.53;66.89;98549.98;107604;1251;60536;-37
2023/03/29 04:13:42;;;;;;;1.50;1.40;;;;;;;-0.56;66.96;98547.84;107754;1250;61223;-37
2023/03/29 04:16:34;;;;;;;1.80;1.20;;;;;;;-0.58;67.03;98552.58;107440;1250;75048;-37
2023/03/29 04:19:16;;;;;;;2.20;1.40;;;;;;;-0.52;66.72;98552.95;107802;1251;69731;-38
2023/03/29 04:21:50;;;;;;;3.30;1.50;;;;;;;-0.51;66.67;98557.50;107753;1254;73762;-37
2023/03/29 04:24:18;;;;;;;;;;;;;;;-0.55;66.76;98565.84;107734;1251;60294;-37
2023/03/29 04:27:00;;;;;;;3.20;1.70;;;;;;;-0.66;66.47;98562.47;107763;1252;61237;-37
2023/03/29 04:29:30;;;;;;;1.90;1.40;;;;;;;-0.73;67.10;98564.72;107771;1251;73839;-37
2023/03/29 04:32:10;;;;;;;3.60;1.50;;;;;;;-0.74;66.91;98570.81;107716;1252;70062;-37
2023/03/29 04:34:48;;;;;;;2.20;1.40;;;;;;;-0.73;66.78;98578.92;107727;1251;73886;-37
2023/03/29 04:37:20;;;;;;;2.70;1.30;;;;;;;-0.68;66.56;98587.22;107678;1251;60441;-37
2023/03/29 04:39:51;;;;;;;4.00;1.50;;;;;;;-0.70;66.29;98591.80;107707;1252;60705;-37
2023/03/29 04:42:23;;;;;;;3.10;1.60;;;;;;;-0.73;66.32;98593.36;107782;1251;75101;-37
2023/03/29 04:44:53;;;;;;;1.80;1.40;;;;;;;-0.77;65.95;98594.40;107745;1254;69750;-37
2023/03/29 04:47:31;;;;;;;2.30;1.80;;;;;;;-0.78;65.95;98590.39;106887;1252;1002997;-36
2023/03/29 04:50:11;;;;;;;4.90;1.70;;;;;;;-0.81;66.16;98596.44;106922;1251;1002937;-37
2023/03/29 04:52:44;;;;;;;1.70;1.40;;;;;;;-0.75;66.28;98599.80;107675;1251;60996;-36
2023/03/29 04:55:13;;;;;;;2.60;1.70;;;;;;;-0.70;66.12;98597.11;107852;1256;73316;-36
2023/03/29 04:57:48;;;;;;;5.10;1.80;;;;;;;-0.69;65.38;98601.19;107696;1251;69648;-36
2023/03/29 05:00:25;;;;;;;3.70;1.90;;;;;;;-0.73;65.26;98601.35;107691;1250;73918;-37
2023/03/29 05:03:14;;;;;;;4.20;2.00;;;;;;;-0.77;65.12;98610.70;107722;1251;60742;-37
2023/03/29 05:05:50;;;;;;;3.10;1.50;;;;;;;-0.81;65.85;98611.56;107703;1254;61173;-37
2023/03/29 05:08:20;;;;;;;2.60;1.80;;;;;;;-0.82;65.87;98607.84;107730;1252;75623;-37
2023/03/29 05:11:12;;;;;;;2.90;1.70;;;;;;;-0.79;65.66;98606.06;107719;1252;69736;-37
2023/03/29 05:13:41;;;;;;;2.70;1.60;;;;;;;-0.77;65.15;98604.86;107748;1252;73812;-37
2023/03/29 05:16:10;;;;;;;2.10;1.50;;;;;;;-0.77;65.37;98604.95;107830;1257;60760;-37
2023/03/29 05:18:39;;;;;;;3.30;1.80;;;;;;;-0.75;65.60;98609.75;106944;1252;1003336;-37
2023/03/29 05:21:08;;;;;;;4.70;1.60;;;;;;;-0.74;65.60;98615.27;107664;1251;74919;-37
2023/03/29 05:23:38;;;;;;;2.40;1.60;;;;;;;-0.74;65.37;98608.77;107777;1251;69574;-36
2023/03/29 05:26:26;;;;;;;3.30;1.60;;;;;;;-0.72;65.57;98614.35;107701;1254;73599;-37
2023/03/29 05:29:01;;;;;;;3.40;1.30;;;;;;;-0.69;65.93;98617.81;106922;1252;1003272;-36
2023/03/29 05:31:31;;;;;;;2.90;1.10;;;;;;;-0.63;65.27;98614.40;107729;1253;61540;-36
2023/03/29 05:34:00;;;;;;;2.10;1.60;;;;;;;-0.58;64.84;98625.67;107803;1254;73795;-37
2023/03/29 05:36:29;;;;;;;4.10;1.70;;;;;;;-0.60;64.61;98622.63;107771;1251;69629;-36
2023/03/29 05:38:59;;;;;;;3.50;1.80;;;;;;;-0.62;64.99;98625.98;107713;1252;73536;-37
2023/03/29 05:41:28;;;;;;;2.50;1.50;;;;;;;-0.68;65.15;98634.76;107793;1254;60499;-37
2023/03/29 05:44:17;;;;;;;2.10;1.60;;;;;;;-0.68;65.57;98637.05;106995;1251;1003457;-37
2023/03/29 05:46:50;;;;;;;2.00;1.60;;;;;;;-0.71;65.50;98639.15;107720;1252;75054;-37
2023/03/29 05:49:20;;;;;;;3.40;2.30;;;;;;;-0.64;65.95;98635.14;107754;1252;70047;-37
2023/03/29 05:51:55;;;;;;;2.20;1.80;;;;;;;-0.56;65.77;98639.48;107585;1251;73507;-36
2023/03/29 05:54:26;;;;;;;5.40;1.80;;;;;;;-0.55;65.48;98637.58;107655;1251;60500;-36
2023/03/29 05:56:55;;;;;;;4.20;1.60;;;;;;;-0.54;65.64;98647.88;107717;1251;60362;-37
2023/03/29 05:59:23;;;;;;;2.60;1.80;;;;;;;-0.54;65.82;98653.48;107050;1251;1002906;-37
2023/03/29 06:04:52;;;;;;;2.20;1.30;;;;;;;-0.59;65.60;98655.30;104119;1292;600209;-35
2023/03/29 06:07:25;;;;;;;2.80;1.80;;;;;;;-0.58;65.71;98655.65;106564;1271;62488;-35
2023/03/29 06:10:22;;;;;;;2.30;1.90;;;;;;;-0.54;65.73;98667.30;107005;1263;61551;-35
2023/03/29 06:12:54;;;;;;;3.80;1.70;;;;;;;-0.58;65.22;98666.52;106990;1261;72142;-36
2023/03/29 06:15:24;;;;;;;2.00;1.70;;;;;;;-0.61;65.67;98668.28;107063;1260;69596;-36
2023/03/29 06:18:01;;;;;;;2.60;1.80;;;;;;;-0.61;65.67;98673.83;106959;1262;212096;-37
2023/03/29 06:20:30;;;;;;;3.00;1.90;;;;;;;-0.62;65.74;98671.72;107247;1262;60502;-36
2023/03/29 06:23:04;;;;;;;2.00;1.40;;;;;;;-0.64;65.79;98675.05;107146;1262;61512;-36
2023/03/29 06:25:34;;;;;;;3.20;1.60;;;;;;;-0.55;65.81;98681.30;107243;1257;73400;-36
2023/03/29 06:28:03;;;;;;;2.90;1.90;;;;;;;-0.48;65.66;98682.94;107099;1261;69983;-36
2023/03/29 06:30:32;;;;;;;2.30;1.80;;;;;;;-0.46;65.77;98689.36;107244;1263;73584;-36
2023/03/29 06:33:05;;;;;;;2.90;2.00;;;;;;;-0.47;65.37;98697.70;107174;1258;59743;-36
2023/03/29 06:35:54;;;;;;;3.30;1.90;;;;;;;-0.44;65.58;98699.55;107192;1263;61538;-36
2023/03/29 06:38:29;;;;;;;4.50;1.80;;;;;;;-0.42;65.82;98699.98;107212;1263;74276;-36
2023/03/29 06:41:05;;;;;;;3.20;1.60;;;;;;;-0.37;65.56;98702.91;107193;1263;69960;-36
2023/03/29 06:43:54;;;;;;;3.30;1.80;;;;;;;-0.26;65.43;98708.40;107124;1258;73582;-36
2023/03/29 06:46:25;;;;;;;2.10;1.80;;;;;;;-0.22;65.49;98707.48;107217;1262;60481;-36
2023/03/29 06:48:56;;;;;;;2.70;1.80;;;;;;;-0.17;65.49;98705.12;107227;1257;61394;-36
2023/03/29 06:51:33;;;;;;;1.80;1.60;;;;;;;-0.06;64.38;98718.83;107218;1263;74330;-35
2023/03/29 06:54:03;;;;;;;5.70;2.10;;;;;;;-0.05;64.50;98718.30;107015;1257;69593;-36
2023/03/29 06:56:33;;;;;;;3.00;2.10;;;;;;;-0.06;64.31;98718.06;107076;1262;73608;-36
2023/03/29 06:59:05;;;;;;;4.30;2.00;;;;;;;-0.02;64.64;98719.93;107121;1257;61393;-35
2023/03/29 07:01:49;;;;;;;1.90;1.50;;;;;;;0.09;64.08;98721.16;107105;1262;61577;-36
2023/03/29 07:04:24;;;;;;;5.80;2.10;;;;;;;0.15;63.67;98726.80;107117;1258;74146;-36
2023/03/29 07:07:18;;;;;;;2.70;2.10;;;;;;;0.17;64.09;98731.80;107537;1254;69743;-36
2023/03/29 07:09:54;;;;;;;3.30;1.80;;;;;;;0.19;63.92;98738.33;107534;1254;72872;-36
2023/03/29 07:12:26;;;;;;;2.60;1.90;;;;;;;0.18;63.78;98741.02;107597;1253;60509;-36
2023/03/29 07:14:58;;;;;;;3.30;2.00;;;;;;;0.17;63.63;98742.80;107603;1253;61085;-36
2023/03/29 07:17:44;;;;;;;2.50;2.00;;;;;;;0.18;63.60;98744.64;107538;1254;73961;-36
2023/03/29 07:20:14;;;;;;;2.20;1.90;;;;;;;0.19;63.84;98750.80;106903;1254;1003296;-36
2023/03/29 07:22:51;;;;;;;2.10;1.60;;;;;;;0.24;63.73;98752.63;107610;1256;73567;-36
2023/03/29 07:25:22;;;;;;;3.70;2.10;;;;;;;0.28;63.79;98758.82;106863;1257;1003090;-37
2023/03/29 07:27:51;;;;;;;5.80;2.30;;;;;;;0.28;64.06;98762.11;107674;1256;60273;-36
2023/03/29 07:30:22;;;;;;;2.30;2.00;;;;;;;0.29;63.99;98763.97;107525;1260;74334;-36
2023/03/29 07:32:52;;;;;;;4.40;2.00;;;;;;;0.26;63.96;98760.15;107669;1254;69908;-35
2023/03/29 07:35:29;;;;;;;2.80;2.10;;;;;;;0.23;63.87;98761.99;107586;1255;72585;-36
2023/03/29 07:38:18;;;;;;;3.50;2.20;;;;;;;0.20;63.88;98770.06;107578;1252;62124;-35
2023/03/29 07:40:50;;;;;;;5.70;2.00;;;;;;;0.21;64.57;98778.83;107479;1254;61539;-36
2023/03/29 07:43:31;;;;;;;3.90;2.10;;;;;;;0.34;64.61;98787.88;107585;1254;74127;-36
2023/03/29 07:46:05;;;;;;;3.50;2.30;;;;;;;0.39;64.37;98787.73;107624;1254;70333;-36
2023/03/29 07:48:35;;;;;;;3.90;2.40;;;;;;;0.41;64.52;98798.20;107445;1254;71794;-36
2023/03/29 07:51:15;;;;;;;5.10;2.20;;;;;;;0.41;64.50;98805.62;107574;1254;60478;-36
2023/03/29 07:53:54;;;;;;;2.80;2.20;;;;;;;0.41;64.77;98811.15;107546;1254;61290;-36
2023/03/29 07:56:42;;;;;;;4.20;2.30;;;;;;;0.41;64.61;98815.10;107548;1254;74096;-36
2023/03/29 07:59:26;;;;;;;2.50;2.10;;;;;;;0.36;64.42;98817.84;107568;1257;69840;-37
2023/03/29 08:02:11;;;;;;;2.70;1.80;;;;;;;0.38;64.76;98814.16;107635;1254;73589;-37
2023/03/29 08:04:44;;;;;;;2.20;1.70;;;;;;;0.41;64.90;98814.36;107610;1254;60424;-37
2023/03/29 08:07:18;;;;;;;3.30;1.80;;;;;;;0.42;64.79;98817.50;107636;1254;61527;-36
2023/03/29 08:09:56;;;;;;;2.40;2.10;;;;;;;0.41;64.85;98818.15;107636;1254;74252;-37
2023/03/29 08:12:37;;;;;;;3.30;2.30;;;;;;;0.42;65.35;98819.25;107620;1254;70107;-36
2023/03/29 08:15:08;;;;;;;2.80;2.00;;;;;;;0.41;65.35;98818.20;107613;1255;73482;-36
2023/03/29 08:17:37;;;;;;;2.70;2.00;;;;;;;0.41;65.13;98821.55;107498;1254;61166;-36
2023/03/29 08:20:09;;;;;;;3.40;2.30;;;;;;;0.44;65.36;98820.63;107668;1254;61073;-37
2023/03/29 08:22:40;;;;;;;3.10;2.30;;;;;;;0.43;65.23;98823.17;107570;1255;73103;-36
2023/03/29 08:25:23;;;;;;;4.10;2.20;;;;;;;0.41;65.51;98823.64;107612;1257;69662;-36
2023/03/29 08:27:53;;;;;;;2.70;2.20;;;;;;;0.43;65.58;98823.17;107647;1254;73594;-37
2023/03/29 08:30:29;;;;;;;3.40;2.10;;;;;;;0.45;65.70;98830.52;107624;1254;59765;-37
2023/03/29 08:32:58;;;;;;;2.30;2.10;;;;;;;0.49;65.84;98832.98;106888;1256;1003569;-37
2023/03/29 08:35:26;;;;;;;3.20;2.00;;;;;;;0.58;65.80;98838.52;107537;1253;73902;-36
2023/03/29 08:38:07;;;;;;;3.10;2.10;;;;;;;0.59;65.53;98849.58;107604;1254;69892;-37
2023/03/29 08:40:36;;;;;;;2.70;2.40;;;;;;;0.55;65.85;98845.53;107538;1254;73564;-36
